Time;durP1;ratioP1;P1;durP2;ratioP2;P2;SDS_P1;SDS_P2;PMS_P1;PMS_P2;Temp;Humidity;BMP_temperature;BMP_pressure;BME280_temperature;BME280_humidity;BME280_pressure;Samples;Min_cycle;Max_cycle;Signal;HPM_P1;HPM_P2
2022/05/21 00:00:20;;;;;;;23.25;11.13;;;9.30;99.90;;;;;;5014104;28;20144;-45
2022/05/21 00:02:46;;;;;;;42.67;13.93;;;9.00;99.90;;;;;;5014668;28;20046;-44
2022/05/21 00:05:13;;;;;;;29.88;12.77;;;9.20;99.90;;;;;;5013822;28;20129;-46
2022/05/21 00:07:39;;;;;;;26.58;11.10;;;9.30;99.90;;;;;;5014155;28;20057;-44
2022/05/21 00:10:07;;;;;;;33.70;12.45;;;9.40;99.90;;;;;;5014089;28;20157;-45
2022/05/21 00:12:33;;;;;;;23.42;11.30;;;9.10;99.90;;;;;;5014518;28;20107;-44
2022/05/21 00:15:00;;;;;;;30.55;12.85;;;9.20;99.90;;;;;;5014997;28;20512;-46
2022/05/21 00:17:25;;;;;;;26.33;12.02;;;9.30;99.90;;;;;;5014563;28;20041;-45
2022/05/21 00:19:52;;;;;;;26.67;12.48;;;;;;;;;;5014940;28;20052;-45
2022/05/21 00:22:18;;;;;;;22.17;11.23;;;8.90;99.90;;;;;;5014228;28;20482;-44
2022/05/21 00:24:43;;;;;;;39.03;14.05;;;9.40;99.90;;;;;;5014749;28;20037;-45
2022/05/21 00:27:09;;;;;;;31.15;13.82;;;9.90;99.90;;;;;;5014514;28;20108;-43
2022/05/21 00:29:35;;;;;;;25.00;11.30;;;9.80;99.90;;;;;;5014250;28;20428;-45
2022/05/21 00:32:02;;;;;;;24.45;12.50;;;9.40;99.90;;;;;;5014527;28;20118;-43
2022/05/21 00:34:31;;;;;;;30.77;13.30;;;;;;;;;;5014373;28;20412;-44
2022/05/21 00:36:57;;;;;;;34.45;14.35;;;9.00;99.90;;;;;;5014667;28;20100;-43
2022/05/21 00:39:23;;;;;;;46.38;16.08;;;9.60;99.90;;;;;;5014842;28;20397;-44
2022/05/21 00:41:50;;;;;;;29.55;14.15;;;9.00;99.90;;;;;;5014358;28;20770;-45
2022/05/21 00:44:15;;;;;;;55.95;17.05;;;9.30;99.90;;;;;;5013081;28;20133;-44
2022/05/21 00:46:44;;;;;;;40.70;16.05;;;9.30;99.90;;;;;;5014003;28;20125;-44
2022/05/21 00:49:15;;;;;;;74.82;19.63;;;9.00;99.90;;;;;;5012422;28;20723;-48
2022/05/21 00:51:55;;;;;;;61.28;19.05;;;9.50;99.90;;;;;;5013580;28;20046;-43
2022/05/21 00:54:27;;;;;;;49.15;18.10;;;9.20;99.90;;;;;;5014050;28;20076;-45
2022/05/21 00:57:00;;;;;;;65.78;19.80;;;10.00;99.90;;;;;;5014102;28;20034;-44
2022/05/21 01:02:14;;;;;;;58.67;20.50;;;9.30;99.90;;;;;;5013797;28;20056;-44
2022/05/21 01:04:42;;;;;;;45.90;21.48;;;9.40;99.90;;;;;;5013737;28;20045;-44
2022/05/21 01:07:08;;;;;;;72.88;24.92;;;9.40;99.90;;;;;;5013376;28;20041;-44
2022/05/21 01:09:36;;;;;;;117.80;28.60;;;9.80;99.90;;;;;;5012455;28;20056;-45
2022/05/21 01:12:03;;;;;;;82.72;29.05;;;9.30;99.90;;;;;;5013804;28;20135;-45
2022/05/21 01:14:29;;;;;;;58.63;28.05;;;9.20;99.90;;;;;;5013709;28;20096;-44
2022/05/21 01:16:55;;;;;;;67.50;31.63;;;9.30;99.90;;;;;;5013323;28;20030;-45
2022/05/21 01:19:21;;;;;;;83.88;34.20;;;10.20;99.90;;;;;;5013228;28;20378;-44
2022/05/21 01:21:47;;;;;;;100.10;36.60;;;9.60;99.90;;;;;;5011994;28;20125;-45
2022/05/21 01:24:12;;;;;;;114.72;37.63;;;9.70;99.90;;;;;;5013400;28;20090;-44
2022/05/21 01:26:39;;;;;;;88.80;35.92;;;9.70;99.90;;;;;;5013290;28;20049;-45
2022/05/21 01:29:18;;;;;;;104.18;39.50;;;10.60;99.90;;;;;;5013253;28;20131;-44
2022/05/21 01:31:51;;;;;;;68.22;34.67;;;9.80;99.90;;;;;;5013307;28;20478;-46
2022/05/21 01:34:18;;;;;;;95.72;38.72;;;10.30;99.90;;;;;;5013549;28;20046;-45
2022/05/21 01:36:46;;;;;;;115.10;42.65;;;10.50;99.90;;;;;;5012778;28;20501;-45
2022/05/21 01:39:12;;;;;;;98.68;41.08;;;10.40;99.90;;;;;;5013081;28;20049;-44
2022/05/21 01:41:45;;;;;;;135.65;45.45;;;10.20;99.90;;;;;;5012865;28;20057;-46
2022/05/21 01:46:55;;;;;;;106.53;43.50;;;10.10;99.90;;;;;;5012843;28;19972;-43
2022/05/21 01:49:21;;;;;;;109.80;44.50;;;10.40;99.90;;;;;;5013369;28;20132;-45
2022/05/21 01:51:47;;;;;;;96.30;42.25;;;10.50;99.90;;;;;;5011178;28;20041;-44
2022/05/21 01:54:13;;;;;;;102.40;45.22;;;10.30;99.90;;;;;;5013132;28;20050;-45
2022/05/21 01:56:38;;;;;;;110.38;45.90;;;10.20;99.90;;;;;;5012662;28;20524;-44
2022/05/21 01:59:04;;;;;;;145.85;47.45;;;10.30;99.90;;;;;;5012694;28;20038;-44
2022/05/21 02:01:30;;;;;;;93.35;41.53;;;10.80;99.90;;;;;;5013084;28;20168;-43
2022/05/21 02:03:56;;;;;;;120.30;49.03;;;10.50;99.90;;;;;;5012570;28;20144;-45
2022/05/21 02:06:22;;;;;;;148.32;52.35;;;10.30;99.90;;;;;;5012630;28;20049;-47
2022/05/21 02:08:47;;;;;;;127.00;51.33;;;10.60;99.90;;;;;;5011289;28;20511;-45
2022/05/21 02:11:13;;;;;;;148.25;52.92;;;10.80;99.90;;;;;;5011191;28;20495;-45
2022/05/21 02:13:38;;;;;;;124.32;52.40;;;11.20;99.90;;;;;;5012197;28;20042;-45
2022/05/21 02:16:04;;;;;;;107.15;50.25;;;11.10;99.90;;;;;;5012144;28;20045;-44
2022/05/21 02:18:31;;;;;;;133.93;53.22;;;10.80;99.90;;;;;;5012074;28;20048;-44
2022/05/21 02:20:56;;;;;;;122.75;49.97;;;11.60;99.90;;;;;;5012166;28;20049;-44
2022/05/21 02:23:23;;;;;;;130.50;50.95;;;11.00;99.90;;;;;;4993840;28;20053;-44
2022/05/21 02:25:49;;;;;;;134.13;53.75;;;10.80;99.90;;;;;;5011961;28;20073;-45
2022/05/21 02:28:15;;;;;;;133.30;53.08;;;10.90;99.90;;;;;;5011866;28;20049;-43
2022/05/21 02:30:42;;;;;;;157.15;55.50;;;10.80;99.90;;;;;;5012147;28;20046;-46
2022/05/21 02:33:07;;;;;;;123.60;55.78;;;11.10;99.90;;;;;;5011795;28;20055;-44
2022/05/21 02:35:33;;;;;;;126.03;51.85;;;11.30;99.90;;;;;;5012279;28;20117;-45
2022/05/21 02:40:43;;;;;;;127.40;54.38;;;11.40;99.90;;;;;;5012086;28;20176;-44
2022/05/21 02:43:09;;;;;;;118.53;53.45;;;11.30;99.90;;;;;;5011789;28;20121;-44
2022/05/21 02:45:34;;;;;;;143.77;55.95;;;11.70;99.90;;;;;;5011749;28;20124;-46
2022/05/21 02:48:00;;;;;;;100.88;45.08;;;11.40;99.90;;;;;;5011624;28;20260;-45
2022/05/21 02:50:33;;;;;;;107.63;50.60;;;11.10;99.90;;;;;;5012021;28;20053;-44
2022/05/21 02:53:04;;;;;;;142.10;59.38;;;11.60;99.90;;;;;;5011896;28;20511;-44
2022/05/21 02:55:30;;;;;;;137.18;56.78;;;11.40;99.90;;;;;;5011974;28;20049;-44
2022/05/21 02:57:56;;;;;;;129.70;53.58;;;11.10;99.90;;;;;;5011573;28;20394;-46
2022/05/21 03:00:24;;;;;;;134.35;57.28;;;11.20;99.90;;;;;;5011861;28;20057;-46
2022/05/21 03:02:50;;;;;;;132.45;55.22;;;11.60;99.90;;;;;;5011650;28;20405;-44
2022/05/21 03:05:17;;;;;;;117.85;53.05;;;11.60;99.90;;;;;;5011243;28;20042;-44
2022/05/21 03:07:46;;;;;;;99.47;47.83;;;11.20;99.90;;;;;;5010927;28;20093;-45
2022/05/21 03:10:23;;;;;;;118.32;52.70;;;11.60;99.90;;;;;;5010845;28;20081;-46
2022/05/21 03:12:57;;;;;;;116.15;50.10;;;11.30;99.90;;;;;;5009837;28;20046;-46
2022/05/21 03:15:33;;;;;;;116.50;49.85;;;11.30;99.90;;;;;;5010681;28;20049;-45
2022/05/21 03:18:01;;;;;;;109.88;48.83;;;11.40;99.90;;;;;;5010885;28;20049;-45
2022/05/21 03:20:26;;;;;;;99.32;41.92;;;11.30;99.90;;;;;;5011044;28;20045;-47
2022/05/21 03:22:53;;;;;;;94.10;46.80;;;11.70;99.90;;;;;;5010867;28;20382;-45
2022/05/21 03:25:19;;;;;;;109.93;48.00;;;11.40;99.90;;;;;;5010837;28;20405;-47
2022/05/21 03:27:45;;;;;;;134.00;52.55;;;10.70;99.90;;;;;;5010704;28;20041;-48
2022/05/21 03:30:12;;;;;;;105.70;47.95;;;;;;;;;;5010689;28;20121;-46
2022/05/21 03:32:39;;;;;;;154.77;51.47;;;;;;;;;;5010861;28;20389;-44
2022/05/21 03:35:05;;;;;;;133.30;48.80;;;;;;;;;;5011158;28;20096;-45
2022/05/21 03:37:31;;;;;;;81.20;44.33;;;;;;;;;;5011169;28;20382;-47
2022/05/21 03:39:57;;;;;;;105.82;45.35;;;;;;;;;;5011094;28;20105;-44
2022/05/21 03:42:24;;;;;;;96.45;46.17;;;;;;;;;;5010878;28;20117;-45
2022/05/21 03:44:50;;;;;;;119.38;45.13;;;11.60;99.90;;;;;;5010836;28;20050;-46
2022/05/21 03:47:15;;;;;;;114.15;44.17;;;11.90;99.90;;;;;;5010629;28;20192;-45
2022/05/21 03:49:41;;;;;;;93.15;42.45;;;11.80;99.90;;;;;;5011344;28;20049;-46
2022/05/21 03:52:08;;;;;;;91.35;41.35;;;11.90;99.90;;;;;;5010343;28;20471;-45
2022/05/21 03:54:34;;;;;;;81.38;40.72;;;11.50;99.90;;;;;;5011221;28;20116;-45
2022/05/21 03:56:59;;;;;;;86.47;39.03;;;11.70;99.90;;;;;;5010908;28;20557;-44
2022/05/21 03:59:25;;;;;;;78.85;38.25;;;11.50;99.90;;;;;;5011110;28;20044;-44
2022/05/21 04:01:51;;;;;;;75.57;37.08;;;11.50;99.90;;;;;;5011236;28;20042;-45
2022/05/21 04:04:17;;;;;;;104.63;40.75;;;12.00;99.90;;;;;;5009895;28;20752;-45
2022/05/21 04:06:43;;;;;;;84.60;38.38;;;11.60;99.90;;;;;;5011202;28;20050;-44
2022/05/21 04:09:09;;;;;;;92.25;36.40;;;12.30;99.90;;;;;;5011071;28;20393;-43
2022/05/21 04:11:35;;;;;;;79.45;38.08;;;11.60;99.90;;;;;;5011212;28;20049;-44
2022/05/21 04:14:01;;;;;;;89.97;37.63;;;12.30;99.90;;;;;;5011183;28;20429;-46
2022/05/21 04:16:27;;;;;;;73.25;34.45;;;11.70;99.90;;;;;;5011377;28;20048;-45
2022/05/21 04:18:53;;;;;;;69.07;31.70;;;11.70;99.90;;;;;;5010779;28;20042;-44
2022/05/21 04:21:20;;;;;;;66.85;30.08;;;12.10;99.90;;;;;;5011009;28;20401;-45
2022/05/21 04:23:45;;;;;;;70.68;31.13;;;12.00;99.90;;;;;;5010975;28;20048;-45
2022/05/21 04:26:11;;;;;;;86.70;33.17;;;12.00;99.90;;;;;;5013228;28;20038;-45
2022/05/21 04:28:37;;;;;;;59.70;26.35;;;12.20;99.90;;;;;;5014534;28;20096;-44
2022/05/21 04:31:03;;;;;;;46.25;25.88;;;12.30;99.90;;;;;;5014513;28;20417;-44
2022/05/21 04:33:28;;;;;;;67.40;27.88;;;12.20;99.90;;;;;;5014053;28;20139;-46
2022/05/21 04:38:38;;;;;;;54.80;24.23;;;11.90;99.90;;;;;;5014249;28;20056;-46
2022/05/21 04:41:04;;;;;;;67.45;25.88;;;12.20;99.90;;;;;;5014661;28;20037;-46
2022/05/21 04:43:29;;;;;;;56.53;24.27;;;12.10;99.90;;;;;;5014437;28;20042;-45
2022/05/21 04:45:55;;;;;;;71.05;23.05;;;12.20;99.90;;;;;;5014039;28;20481;-45
2022/05/21 04:48:21;;;;;;;58.80;21.63;;;12.10;99.90;;;;;;5013805;28;20046;-44
2022/05/21 04:50:47;;;;;;;54.85;20.85;;;12.10;99.90;;;;;;5013892;28;20501;-46
2022/05/21 04:53:13;;;;;;;51.17;17.92;;;12.10;99.90;;;;;;5013885;28;20041;-45
2022/05/21 04:55:38;;;;;;;46.63;18.58;;;12.20;99.90;;;;;;5012982;28;20525;-45
2022/05/21 04:58:05;;;;;;;45.15;14.95;;;12.40;99.90;;;;;;5013623;28;20049;-46
2022/05/21 05:00:31;;;;;;;43.38;15.02;;;12.00;99.90;;;;;;5013657;28;20048;-44
2022/05/21 05:02:57;;;;;;;40.35;13.00;;;12.20;99.90;;;;;;5013639;28;20046;-46
2022/05/21 05:05:23;;;;;;;43.40;13.65;;;12.30;99.90;;;;;;5014014;28;20453;-48
2022/05/21 05:07:49;;;;;;;37.40;11.13;;;12.60;99.90;;;;;;5013290;28;20446;-44
2022/05/21 05:10:15;;;;;;;31.67;10.57;;;12.70;99.90;;;;;;5013395;28;20042;-46
2022/05/21 05:12:40;;;;;;;34.15;9.82;;;13.20;99.90;;;;;;5013488;28;20046;-44
2022/05/21 05:15:09;;;;;;;37.97;10.57;;;13.10;99.90;;;;;;5013473;28;20045;-44
2022/05/21 05:17:35;;;;;;;32.88;10.98;;;12.50;99.90;;;;;;5013231;28;20124;-46
2022/05/21 05:20:01;;;;;;;32.70;10.75;;;13.10;99.90;;;;;;5013426;28;20545;-47
2022/05/21 05:22:27;;;;;;;31.83;9.52;;;13.30;99.90;;;;;;5013294;28;20130;-46
2022/05/21 05:24:53;;;;;;;31.33;9.18;;;13.80;99.90;;;;;;5013190;28;20039;-45
2022/05/21 05:27:19;;;;;;;30.10;8.90;;;13.30;99.90;;;;;;5012936;28;20389;-44
2022/05/21 05:29:44;;;;;;;31.40;9.35;;;13.50;99.90;;;;;;5012905;28;20034;-45
2022/05/21 05:32:10;;;;;;;30.02;9.90;;;14.60;99.90;;;;;;5012898;28;20499;-46
2022/05/21 05:34:36;;;;;;;32.58;9.10;;;14.20;99.90;;;;;;5013001;28;20074;-45
2022/05/21 05:37:03;;;;;;;30.73;9.18;;;13.70;99.90;;;;;;5012568;28;20045;-45
2022/05/21 05:39:30;;;;;;;28.13;8.23;;;13.40;99.90;;;;;;5013094;28;20065;-47
2022/05/21 05:41:57;;;;;;;18.35;5.72;;;13.20;99.90;;;;;;5012752;28;20056;-45
2022/05/21 05:44:24;;;;;;;22.15;6.05;;;13.20;99.90;;;;;;5012440;28;20117;-44
2022/05/21 05:46:50;;;;;;;21.88;5.13;;;13.40;99.90;;;;;;5012270;28;20038;-46
2022/05/21 05:49:16;;;;;;;23.38;5.68;;;13.10;99.90;;;;;;5012422;28;20053;-46
2022/05/21 05:51:41;;;;;;;26.65;5.45;;;13.50;99.90;;;;;;5012562;28;20048;-45
2022/05/21 05:54:07;;;;;;;16.90;4.13;;;13.50;99.90;;;;;;5012523;28;20120;-44
2022/05/21 05:56:33;;;;;;;19.70;4.85;;;13.20;99.90;;;;;;5012309;28;20056;-48
2022/05/21 06:01:44;;;;;;;13.50;3.88;;;13.70;99.90;;;;;;5011765;28;20096;-45
2022/05/21 06:04:10;;;;;;;20.92;3.85;;;15.00;99.90;;;;;;4993870;28;20095;-46
2022/05/21 06:06:36;;;;;;;17.35;4.93;;;15.80;99.90;;;;;;5011666;28;20443;-44
2022/05/21 06:09:03;;;;;;;14.25;3.38;;;15.70;99.90;;;;;;5011947;28;20068;-45
2022/05/21 06:11:32;;;;;;;14.60;3.33;;;15.70;99.90;;;;;;5010392;28;20041;-45
2022/05/21 06:14:01;;;;;;;12.98;3.03;;;15.40;99.90;;;;;;5011698;28;20084;-45
2022/05/21 06:16:27;;;;;;;10.82;2.20;;;15.10;99.90;;;;;;5011488;28;20077;-45
2022/05/21 06:18:52;;;;;;;10.95;2.80;;;14.50;99.90;;;;;;5011774;28;20042;-44
2022/05/21 06:21:18;;;;;;;17.83;3.08;;;14.20;99.90;;;;;;5011628;28;20046;-43
2022/05/21 06:23:45;;;;;;;14.77;3.10;;;14.00;99.90;;;;;;5011736;28;20052;-45
2022/05/21 06:26:13;;;;;;;11.73;2.80;;;14.40;99.90;;;;;;5011063;28;20041;-47
2022/05/21 06:28:39;;;;;;;8.40;2.38;;;14.60;99.90;;;;;;5011235;28;20053;-47
2022/05/21 06:31:05;;;;;;;14.32;3.40;;;15.20;99.90;;;;;;5011344;28;20107;-44
2022/05/21 06:33:31;;;;;;;16.30;2.63;;;15.00;99.90;;;;;;5011037;28;20084;-44
2022/05/21 06:36:12;;;;;;;12.15;2.70;;;15.30;99.90;;;;;;5011411;28;20575;-48
2022/05/21 06:38:39;;;;;;;13.77;2.88;;;15.40;99.90;;;;;;5011405;28;20112;-46
2022/05/21 06:41:05;;;;;;;12.52;1.88;;;16.20;99.90;;;;;;5011276;28;20049;-43
2022/05/21 06:43:31;;;;;;;10.70;2.13;;;16.80;99.90;;;;;;5009774;28;20131;-46
2022/05/21 06:45:57;;;;;;;13.05;1.90;;;18.70;99.90;;;;;;5009599;28;20053;-44
2022/05/21 06:48:23;;;;;;;15.15;2.38;;;19.50;99.90;;;;;;5010107;28;20068;-43
2022/05/21 06:50:49;;;;;;;8.73;1.50;;;20.10;99.90;;;;;;5011070;28;20037;-46
2022/05/21 06:53:15;;;;;;;12.23;2.25;;;20.80;99.90;;;;;;5010499;28;20184;-44
2022/05/21 06:55:41;;;;;;;9.50;2.40;;;21.70;99.90;;;;;;5010744;28;20050;-45
2022/05/21 06:58:07;;;;;;;11.18;2.05;;;22.30;99.90;;;;;;5010687;28;20050;-45
2022/05/21 07:00:33;;;;;;;9.73;1.38;;;22.80;99.90;;;;;;5010895;28;20045;-45
2022/05/21 07:02:59;;;;;;;8.90;0.90;;;23.30;99.90;;;;;;5009231;28;20056;-45
2022/05/21 07:08:26;;;;;;;9.88;0.85;;;24.30;99.90;;;;;;5010525;28;20049;-46
2022/05/21 07:10:52;;;;;;;8.05;1.35;;;25.00;99.90;;;;;;5009627;28;20038;-46
2022/05/21 07:13:20;;;;;;;7.63;1.00;;;24.90;99.90;;;;;;5009400;28;20046;-45
2022/05/21 07:15:48;;;;;;;10.65;1.30;;;25.10;99.90;;;;;;5009314;28;20572;-46
2022/05/21 07:18:17;;;;;;;10.48;1.60;;;24.30;99.90;;;;;;5009163;28;20378;-44
2022/05/21 07:20:43;;;;;;;12.32;1.15;;;23.20;99.90;;;;;;5009597;28;20052;-46
2022/05/21 07:23:09;;;;;;;6.03;0.75;;;21.00;99.90;;;;;;5009066;28;20054;-44
2022/05/21 07:25:35;;;;;;;10.15;1.40;;;20.40;99.90;;;;;;5008857;28;20046;-45
2022/05/21 07:28:01;;;;;;;10.13;1.67;;;20.50;99.90;;;;;;5009352;28;20034;-44
2022/05/21 07:30:29;;;;;;;5.45;0.75;;;21.70;99.90;;;;;;5009188;28;20041;-46
2022/05/21 07:32:55;;;;;;;5.93;1.10;;;22.30;99.90;;;;;;5008965;28;20049;-46
2022/05/21 07:35:23;;;;;;;8.43;1.65;;;22.10;99.90;;;;;;5008384;28;20486;-45
2022/05/21 07:37:48;;;;;;;6.88;0.98;;;21.00;99.90;;;;;;5008936;28;20528;-49
2022/05/21 07:40:16;;;;;;;5.97;0.80;;;20.10;99.90;;;;;;5008854;28;20049;-44
2022/05/21 07:42:43;;;;;;;7.18;1.35;;;19.70;99.90;;;;;;5009008;28;20056;-50
2022/05/21 07:45:11;;;;;;;9.55;1.20;;;19.60;99.90;;;;;;5008310;28;20493;-45
2022/05/21 07:47:37;;;;;;;12.27;2.08;;;21.20;99.90;;;;;;5008931;28;20193;-45
2022/05/21 07:50:04;;;;;;;5.35;0.90;;;22.40;99.90;;;;;;5008524;28;20137;-45
2022/05/21 07:52:30;;;;;;;6.50;0.88;;;21.80;99.90;;;;;;5009126;28;20390;-45
2022/05/21 07:54:56;;;;;;;7.82;1.50;;;22.90;99.20;;;;;;5008202;28;20501;-46
2022/05/21 07:57:22;;;;;;;8.15;1.25;;;22.90;98.50;;;;;;5008695;28;20038;-48
2022/05/21 07:59:48;;;;;;;6.30;0.95;;;23.10;98.70;;;;;;5010608;28;20553;-46
2022/05/21 08:02:16;;;;;;;6.18;0.80;;;23.90;98.20;;;;;;5012732;28;20611;-46
2022/05/21 08:04:48;;;;;;;8.68;1.05;;;23.00;95.80;;;;;;5012996;28;20045;-47
2022/05/21 08:07:14;;;;;;;5.72;0.93;;;24.00;94.40;;;;;;5012902;28;20053;-45
2022/05/21 08:09:41;;;;;;;5.57;0.88;;;25.40;93.40;;;;;;5012204;28;20053;-48
2022/05/21 08:12:08;;;;;;;7.07;0.98;;;26.30;90.60;;;;;;5011422;28;20046;-45
2022/05/21 08:14:34;;;;;;;7.25;0.75;;;27.10;90.30;;;;;;5012882;28;20069;-45
2022/05/21 08:17:00;;;;;;;8.85;1.27;;;26.20;86.60;;;;;;5012820;28;20128;-50
2022/05/21 08:19:26;;;;;;;8.82;1.52;;;24.80;86.70;;;;;;5012452;28;20164;-47
2022/05/21 08:21:52;;;;;;;8.43;1.00;;;23.80;89.30;;;;;;5012318;28;20537;-49
2022/05/21 08:27:03;;;;;;;8.02;1.10;;;24.40;85.60;;;;;;5012661;28;20137;-47
2022/05/21 08:29:34;;;;;;;9.23;1.00;;;23.50;85.50;;;;;;5011777;28;20573;-49
2022/05/21 08:32:01;;;;;;;6.40;0.85;;;24.30;87.40;;;;;;5012490;28;20037;-47
2022/05/21 08:34:27;;;;;;;9.02;1.10;;;24.50;87.90;;;;;;5012140;28;20539;-45
2022/05/21 08:36:54;;;;;;;9.93;1.52;;;25.40;89.10;;;;;;5012341;28;20053;-48
2022/05/21 08:39:20;;;;;;;9.32;1.17;;;24.70;86.70;;;;;;5012095;28;20121;-46
2022/05/21 08:41:54;;;;;;;7.07;1.20;;;23.70;84.80;;;;;;5011835;28;20049;-46
2022/05/21 08:44:39;;;;;;;9.18;1.40;;;22.60;83.40;;;;;;5011737;28;20049;-48
2022/05/21 08:47:21;;;;;;;9.15;1.13;;;23.30;86.00;;;;;;5011808;28;20770;-48
2022/05/21 08:49:53;;;;;;;;;;;24.60;84.30;;;;;;5012151;28;20509;-48
2022/05/21 08:52:22;;;;;;;7.72;0.80;;;25.80;85.00;;;;;;5011401;28;19928;-47
2022/05/21 08:54:49;;;;;;;10.00;1.25;;;26.40;79.50;;;;;;5009692;28;20050;-47
2022/05/21 08:57:25;;;;;;;11.18;1.25;;;26.50;77.40;;;;;;5011889;28;20080;-46
2022/05/21 09:00:00;;;;;;;10.15;2.00;;;25.70;73.80;;;;;;5011974;28;20061;-47
2022/05/21 09:02:36;;;;;;;7.72;0.80;;;24.40;75.60;;;;;;5009896;28;20052;-45
2022/05/21 09:05:06;;;;;;;8.73;0.73;;;23.80;76.80;;;;;;5011603;28;20053;-46
2022/05/21 09:07:51;;;;;;;10.60;1.60;;;24.40;79.10;;;;;;5011476;28;20050;-47
2022/05/21 09:10:35;;;;;;;10.23;1.30;;;24.50;76.30;;;;;;5011235;28;20116;-46
2022/05/21 09:13:16;;;;;;;7.13;1.02;;;24.90;79.70;;;;;;5011407;28;20126;-45
2022/05/21 09:18:29;;;;;;;12.73;1.88;;;25.50;77.30;;;;;;5011431;28;20133;-47
2022/05/21 09:20:55;;;;;;;7.88;1.67;;;25.50;76.60;;;;;;5011337;28;20077;-47
2022/05/21 09:23:21;;;;;;;6.13;0.80;;;25.20;76.00;;;;;;5011404;28;20069;-49
2022/05/21 09:26:04;;;;;;;7.82;1.20;;;26.10;74.00;;;;;;5011372;28;20111;-47
2022/05/21 09:28:29;;;;;;;5.63;0.80;;;27.00;71.30;;;;;;5009065;28;20537;-47
2022/05/21 09:30:57;;;;;;;6.15;1.02;;;27.50;69.50;;;;;;5011233;28;20084;-45
2022/05/21 09:33:34;;;;;;;8.90;0.88;;;28.30;67.60;;;;;;5009181;28;20564;-49
2022/05/21 09:36:00;;;;;;;6.53;0.85;;;29.50;67.80;;;;;;5010757;28;20100;-46
2022/05/21 09:38:30;;;;;;;5.60;0.90;;;29.30;63.40;;;;;;5011305;28;20045;-49
2022/05/21 09:41:22;;;;;;;5.72;1.20;;;28.30;63.30;;;;;;5012036;28;20516;-49
2022/05/21 09:46:45;;;;;;;6.10;1.02;;;25.00;66.10;;;;;;5012362;28;20065;-47
2022/05/21 09:49:31;;;;;;;5.45;1.27;;;24.30;68.20;;;;;;5012280;28;20510;-45
2022/05/21 09:52:05;;;;;;;6.63;0.85;;;23.50;70.50;;;;;;5012192;28;20144;-49
2022/05/21 09:54:42;;;;;;;6.18;0.88;;;24.30;74.10;;;;;;5011724;28;20046;-47
2022/05/21 09:57:34;;;;;;;7.55;1.60;;;25.30;72.10;;;;;;5011836;28;20104;-46
2022/05/21 10:00:04;;;;;;;7.97;1.48;;;25.40;70.20;;;;;;5012114;28;20112;-48
2022/05/21 10:02:41;;;;;;;6.93;0.70;;;25.10;69.50;;;;;;5012400;28;20049;-46
2022/05/21 10:05:08;;;;;;;6.22;0.90;;;24.70;67.90;;;;;;5012406;28;20121;-47
2022/05/21 10:13:23;;;;;;;7.95;0.90;;;22.60;85.90;;;;;;5012189;28;20038;-46
2022/05/21 10:16:15;;;;;;;8.93;1.13;;;22.10;90.90;;;;;;5011851;28;20133;-46
2022/05/21 10:19:10;;;;;;;5.90;1.40;;;22.00;89.10;;;;;;5011840;28;20092;-47
2022/05/21 10:21:52;;;;;;;4.28;0.70;;;22.40;90.60;;;;;;4999056;28;20131;-45
2022/05/21 10:24:34;;;;;;;4.80;0.85;;;22.90;77.30;;;;;;5011400;28;20049;-47
2022/05/21 10:27:19;;;;;;;6.63;0.95;;;23.20;75.00;;;;;;5011697;28;20049;-46
2022/05/21 10:29:54;;;;;;;6.95;0.50;;;23.30;76.50;;;;;;5012364;28;20053;-48
2022/05/21 10:32:57;;;;;;;7.53;0.50;;;24.20;75.90;;;;;;5012127;28;20113;-48
2022/05/21 10:35:48;;;;;;;4.50;0.77;;;24.10;73.80;;;;;;5010559;28;20046;-46
2022/05/21 10:38:45;;;;;;;3.75;0.40;;;23.20;70.30;;;;;;5012117;28;20072;-45
2022/05/21 10:41:42;;;;;;;9.00;0.70;;;22.70;72.60;;;;;;5011728;28;20091;-46
2022/05/21 10:44:40;;;;;;;4.47;0.55;;;23.50;74.40;;;;;;5006690;28;20141;-45
2022/05/21 10:47:24;;;;;;;5.40;0.77;;;23.20;71.30;;;;;;5003591;28;20066;-39
2022/05/21 10:49:57;;;;;;;8.43;1.20;;;22.30;71.90;;;;;;5003438;28;20054;-38
2022/05/21 10:52:46;;;;;;;7.53;1.00;;;21.80;74.00;;;;;;5006916;28;20081;-46
2022/05/21 10:55:26;;;;;;;5.88;0.50;;;21.60;75.80;;;;;;4990573;28;20139;-40
2022/05/21 10:58:26;;;;;;;4.82;0.60;;;21.60;77.00;;;;;;5006939;28;20054;-40
2022/05/21 11:01:14;;;;;;;4.80;0.50;;;21.40;76.50;;;;;;5008472;28;20104;-42
2022/05/21 11:03:51;;;;;;;7.97;0.70;;;20.60;88.80;;;;;;5008001;28;20398;-43
2022/05/21 11:06:31;;;;;;;5.85;0.63;;;20.20;78.40;;;;;;4990674;28;20045;-40
2022/05/21 11:09:28;;;;;;;8.35;0.70;;;20.00;78.80;;;;;;5008336;28;20838;-39
2022/05/21 11:12:20;;;;;;;8.48;1.02;;;19.70;80.30;;;;;;5007059;28;20042;-42
2022/05/21 11:14:49;;;;;;;3.60;0.40;;;19.50;83.20;;;;;;4979808;28;20125;-41
2022/05/21 11:17:23;;;;;;;8.02;1.13;;;19.70;83.20;;;;;;5008149;28;20516;-41
2022/05/21 11:20:01;;;;;;;7.40;0.75;;;19.90;83.10;;;;;;5008807;28;20113;-40
2022/05/21 11:22:40;;;;;;;6.68;0.77;;;20.10;81.90;;;;;;5007072;28;20045;-43
2022/05/21 11:25:21;;;;;;;5.22;0.68;;;20.20;82.70;;;;;;5007863;28;20081;-40
2022/05/21 11:28:08;;;;;;;6.30;0.50;;;20.50;83.20;;;;;;5007841;28;20069;-39
2022/05/21 11:30:34;;;;;;;5.70;0.88;;;20.70;82.70;;;;;;4976842;28;20080;-41
2022/05/21 11:38:44;;;;;;;6.15;0.63;;;20.80;83.00;;;;;;5007447;28;20107;-39
2022/05/21 11:41:30;;;;;;;9.43;1.23;;;20.80;82.70;;;;;;5008185;28;20112;-40
2022/05/21 11:47:13;;;;;;;6.65;0.60;;;21.00;82.60;;;;;;5007378;28;20038;-41
2022/05/21 11:49:46;;;;;;;5.63;0.60;;;20.90;83.30;;;;;;5007173;28;20132;-40
2022/05/21 11:52:27;;;;;;;5.70;0.55;;;20.60;83.40;;;;;;5007971;28;20034;-40
2022/05/21 11:54:58;;;;;;;4.55;0.50;;;20.70;83.60;;;;;;5007019;28;20046;-40
2022/05/21 11:57:52;;;;;;;3.70;0.30;;;20.50;83.60;;;;;;5007470;28;20182;-40
2022/05/21 12:00:18;;;;;;;4.10;0.65;;;20.30;82.80;;;;;;5007891;28;20045;-39
2022/05/21 12:02:58;;;;;;;5.63;1.10;;;20.20;82.70;;;;;;5007046;28;20417;-38
2022/05/21 12:05:46;;;;;;;6.03;0.63;;;19.90;82.90;;;;;;5007706;28;20053;-39
2022/05/21 12:08:19;;;;;;;6.38;0.93;;;19.90;83.40;;;;;;5007406;28;20544;-39
2022/05/21 12:11:10;;;;;;;6.47;0.85;;;19.80;83.30;;;;;;5007074;28;20579;-40
2022/05/21 12:13:36;;;;;;;11.38;1.50;;;19.50;83.40;;;;;;5005976;28;20065;-40
2022/05/21 12:16:17;;;;;;;4.65;0.70;;;19.50;84.40;;;;;;5007722;28;20049;-39
2022/05/21 12:18:48;;;;;;;4.73;0.40;;;19.50;85.90;;;;;;5005408;28;20085;-48
2022/05/21 12:23:58;;;;;;;6.70;0.70;;;19.60;86.90;;;;;;5005605;28;20052;-49
2022/05/21 12:26:43;;;;;;;4.65;0.60;;;19.50;86.00;;;;;;5005146;28;20046;-48
2022/05/21 12:29:15;;;;;;;4.00;0.63;;;19.70;86.60;;;;;;5007434;28;20073;-47
2022/05/21 12:31:51;;;;;;;8.43;0.95;;;19.70;84.70;;;;;;5005673;28;20045;-46
2022/05/21 12:34:22;;;;;;;11.45;1.27;;;19.70;84.40;;;;;;5007093;28;20045;-46
2022/05/21 12:37:23;;;;;;;6.30;0.93;;;19.60;83.90;;;;;;5006996;28;20049;-51
2022/05/21 12:40:00;;;;;;;13.60;0.63;;;19.40;83.90;;;;;;4973855;28;20301;-46
2022/05/21 12:43:05;;;;;;;5.90;0.45;;;19.40;84.10;;;;;;5007323;28;20280;-50
2022/05/21 12:45:37;;;;;;;11.57;1.08;;;19.30;84.60;;;;;;4976631;28;20655;-46
2022/05/21 12:48:20;;;;;;;4.93;0.73;;;19.40;84.80;;;;;;5010282;28;20045;-47
2022/05/21 12:50:58;;;;;;;8.38;0.73;;;19.40;84.90;;;;;;5010700;28;20452;-47
2022/05/21 12:53:50;;;;;;;15.43;2.42;;;19.30;85.00;;;;;;5009460;28;20045;-48
2022/05/21 12:56:23;;;;;;;6.00;1.70;;;19.40;85.40;;;;;;5007373;28;20054;-47
2022/05/21 12:59:02;;;;;;;7.85;1.48;;;19.30;85.30;;;;;;5010464;28;20042;-47
2022/05/21 13:01:30;;;;;;;10.82;1.52;;;19.30;85.40;;;;;;5010418;28;20508;-49
2022/05/21 13:03:57;;;;;;;32.42;7.85;;;19.10;85.50;;;;;;5009926;28;20049;-48
2022/05/21 13:06:26;;;;;;;13.95;2.95;;;19.10;85.30;;;;;;5010187;28;20046;-48
2022/05/21 13:08:53;;;;;;;11.80;2.30;;;19.00;85.30;;;;;;5008435;28;20046;-47
2022/05/21 13:11:22;;;;;;;30.55;8.75;;;19.00;85.70;;;;;;5010241;28;20049;-49
2022/05/21 13:13:59;;;;;;;14.57;3.67;;;18.90;85.00;;;;;;5009457;28;20054;-46
2022/05/21 13:16:25;;;;;;;12.63;2.80;;;18.80;85.30;;;;;;5010245;28;20078;-49
2022/05/21 13:19:12;;;;;;;24.70;5.28;;;18.80;86.10;;;;;;5009579;28;20042;-47
2022/05/21 13:21:57;;;;;;;63.55;16.17;;;18.70;87.70;;;;;;5008295;28;20061;-46
2022/05/21 13:24:32;;;;;;;14.48;2.20;;;18.80;87.90;;;;;;5009682;28;20050;-49
2022/05/21 13:27:10;;;;;;;108.18;24.15;;;18.80;87.50;;;;;;5009861;28;20262;-49
2022/05/21 13:29:37;;;;;;;5.32;0.70;;;18.90;86.40;;;;;;5010126;28;20033;-49
2022/05/21 13:32:26;;;;;;;5.47;0.80;;;18.90;86.20;;;;;;5009671;28;20156;-47
2022/05/21 13:35:00;;;;;;;11.50;2.42;;;18.90;86.80;;;;;;5009947;28;20184;-48
2022/05/21 13:37:38;;;;;;;5.90;1.20;;;19.00;86.40;;;;;;5009654;28;20046;-46